Time;durP1;ratioP1;P1;durP2;ratioP2;P2;SDS_P1;SDS_P2;PMS_P1;PMS_P2;Temp;Humidity;BMP_temperature;BMP_pressure;BME280_temperature;BME280_humidity;BME280_pressure;Samples;Min_cycle;Max_cycle;Signal;HPM_P1;HPM_P2
2022/12/12 00:02:21;;;;;;;56.65;22.45;;;;;;;0.08;100.00;98321.66;5072137;28;20070;-83
2022/12/12 00:04:47;;;;;;;53.20;20.23;;;;;;;0.06;100.00;98336.47;5090244;28;20032;-83
2022/12/12 00:07:18;;;;;;;56.45;20.60;;;;;;;0.09;100.00;98341.34;5090655;28;20069;-82
2022/12/12 00:09:44;;;;;;;54.00;23.30;;;;;;;0.18;100.00;98323.34;5073746;28;20066;-84
2022/12/12 00:12:10;;;;;;;60.40;23.13;;;;;;;0.16;100.00;98330.44;5056095;28;20020;-82
2022/12/12 00:14:36;;;;;;;55.13;22.38;;;;;;;0.07;100.00;98348.44;5072729;28;20024;-83
2022/12/12 00:17:02;;;;;;;49.95;22.15;;;;;;;0.24;100.00;98343.44;5090696;28;20370;-82
2022/12/12 00:19:27;;;;;;;48.28;21.13;;;;;;;0.10;100.00;98332.66;5062802;28;20028;-83
2022/12/12 00:21:54;;;;;;;45.55;19.40;;;;;;;0.18;100.00;98336.25;5073125;28;20035;-82
2022/12/12 00:24:20;;;;;;;44.42;19.13;;;;;;;0.17;100.00;98332.06;5059555;28;20028;-83
2022/12/12 00:26:46;;;;;;;50.15;19.55;;;;;;;0.23;100.00;98332.28;5094259;28;20019;-83
2022/12/12 00:32:12;;;;;;;41.53;19.38;;;;;;;0.10;100.00;98324.91;5075646;28;20486;-83
2022/12/12 00:34:37;;;;;;;46.25;18.88;;;;;;;0.28;100.00;98326.69;5094147;28;20030;-82
2022/12/12 00:37:03;;;;;;;41.65;19.63;;;;;;;0.29;100.00;98320.59;5094425;28;20028;-83
2022/12/12 00:39:28;;;;;;;45.92;20.92;;;;;;;0.31;100.00;98344.47;5076300;28;20115;-83
2022/12/12 00:41:54;;;;;;;46.50;21.55;;;;;;;0.25;100.00;98340.69;5094297;28;20150;-83
2022/12/12 00:44:20;;;;;;;44.05;20.92;;;;;;;0.28;100.00;98349.94;5077150;28;20040;-83
2022/12/12 00:46:46;;;;;;;46.40;20.27;;;;;;;0.28;100.00;98345.56;5093932;28;21744;-84
2022/12/12 00:49:12;;;;;;;45.15;20.67;;;;;;;0.34;100.00;98339.03;5094384;28;20374;-82
2022/12/12 00:51:37;;;;;;;47.88;22.83;;;;;;;0.33;100.00;98358.06;5093713;28;20028;-83
2022/12/12 00:54:04;;;;;;;51.35;21.58;;;;;;;0.36;100.00;98357.75;5093922;28;20039;-83
2022/12/12 00:56:31;;;;;;;46.70;20.70;;;;;;;0.37;100.00;98353.41;5093506;28;20027;-82
2022/12/12 00:58:58;;;;;;;50.60;22.30;;;;;;;0.44;100.00;98358.81;5074810;28;20044;-81
2022/12/12 01:01:33;;;;;;;50.83;22.75;;;;;;;0.49;100.00;98348.84;5094107;28;20032;-83
2022/12/12 01:04:01;;;;;;;50.88;21.85;;;;;;;0.39;100.00;98338.59;5058378;28;20043;-83
2022/12/12 01:06:35;;;;;;;53.65;23.10;;;;;;;0.31;100.00;98339.31;5076031;28;20027;-83
2022/12/12 01:09:05;;;;;;;47.33;21.40;;;;;;;0.37;100.00;98354.22;5058032;28;20115;-82
2022/12/12 01:11:36;;;;;;;54.75;23.13;;;;;;;0.17;100.00;98344.97;5075945;28;20110;-82
2022/12/12 01:14:03;;;;;;;54.20;22.92;;;;;;;0.20;100.00;98352.44;5074679;28;20030;-82
2022/12/12 01:16:36;;;;;;;49.78;22.13;;;;;;;0.16;100.00;98367.41;5075484;28;20121;-82
2022/12/12 01:19:02;;;;;;;50.85;22.90;;;;;;;-0.09;100.00;98341.31;5075291;28;20104;-82
2022/12/12 01:21:28;;;;;;;51.90;21.58;;;;;;;-0.02;100.00;98369.91;5093642;28;20031;-83
2022/12/12 01:23:54;;;;;;;53.03;22.17;;;;;;;-0.10;100.00;98359.50;5093852;28;20059;-84
2022/12/12 01:26:23;;;;;;;53.50;22.67;;;;;;;-0.07;100.00;98362.63;5073632;28;20477;-84
2022/12/12 01:28:49;;;;;;;55.08;22.38;;;;;;;-0.22;100.00;98354.53;5075031;28;20032;-82
2022/12/12 01:31:15;;;;;;;58.78;23.42;;;;;;;-0.19;100.00;98348.28;5058746;28;20047;-82
2022/12/12 01:33:44;;;;;;;69.10;27.63;;;;;;;-0.13;100.00;98362.38;5074428;28;20024;-83
2022/12/12 01:36:16;;;;;;;50.47;22.00;;;;;;;-0.02;100.00;98369.91;5058469;28;20036;-82
2022/12/12 01:38:48;;;;;;;53.78;24.20;;;;;;;-0.03;100.00;98360.56;5075110;28;20055;-83
2022/12/12 01:41:16;;;;;;;48.53;21.65;;;;;;;-0.15;100.00;98354.75;5094270;28;20044;-83
2022/12/12 01:43:42;;;;;;;53.90;22.13;;;;;;;-0.12;100.00;98364.78;5075904;28;20105;-83
2022/12/12 01:46:38;;;;;;;59.65;23.38;;;;;;;0.06;100.00;98374.38;5058761;28;20405;-84
2022/12/12 01:49:13;;;;;;;49.13;22.35;;;;;;;-0.03;100.00;98363.13;5058476;28;20036;-81
2022/12/12 01:51:39;;;;;;;58.80;22.40;;;;;;;-0.16;100.00;98363.47;5059615;28;20482;-83
2022/12/12 01:54:13;;;;;;;57.20;23.33;;;;;;;-0.04;100.00;98382.16;5093764;28;20028;-82
2022/12/12 01:56:44;;;;;;;55.08;23.92;;;;;;;-0.21;100.00;98368.25;5075639;28;20537;-82
2022/12/12 01:59:25;;;;;;;63.55;24.42;;;;;;;-0.17;100.00;98365.25;5091798;28;20430;-83
2022/12/12 02:01:51;;;;;;;53.13;22.98;;;;;;;-0.42;100.00;98348.63;5074209;28;20024;-84
2022/12/12 02:04:21;;;;;;;56.58;21.98;;;;;;;-0.50;100.00;98336.44;5091281;28;20031;-84
2022/12/12 02:06:49;;;;;;;58.35;23.65;;;;;;;-0.43;100.00;98350.38;5074541;28;20054;-83
2022/12/12 02:09:17;;;;;;;56.60;22.55;;;;;;;-0.38;100.00;98365.44;5074527;28;20033;-81
2022/12/12 02:11:49;;;;;;;51.88;22.40;;;;;;;-0.45;100.00;98356.66;5073901;28;20048;-82
2022/12/12 02:14:19;;;;;;;56.10;23.33;;;;;;;-0.37;100.00;98371.44;5073803;28;20115;-82
2022/12/12 02:17:49;;;;;;;51.67;22.13;;;;;;;-0.39;100.00;98373.31;5092385;28;20076;-83
2022/12/12 02:20:49;;;;;;;59.45;23.58;;;;;;;-0.20;100.00;98378.41;5015375;28;20037;-83
2022/12/12 02:24:10;;;;;;;70.55;23.98;;;;;;;-0.02;100.00;98380.22;5013783;28;20037;-83
2022/12/12 02:26:49;;;;;;;64.20;24.83;;;;;;;-0.02;100.00;98375.91;4975348;28;20041;-83
2022/12/12 02:29:35;;;;;;;74.65;25.75;;;;;;;0.06;100.00;98376.94;5057412;28;20023;-84
2022/12/12 02:32:22;;;;;;;98.90;27.40;;;;;;;0.07;100.00;98373.41;5073426;28;20027;-82
2022/12/12 02:35:17;;;;;;;63.97;23.90;;;;;;;0.25;100.00;98366.50;5074548;28;20058;-84
2022/12/12 02:38:00;;;;;;;67.03;24.33;;;;;;;0.32;100.00;98371.91;5048204;28;20093;-82
2022/12/12 02:40:53;;;;;;;333.23;40.03;;;;;;;0.27;100.00;98363.81;5091224;28;20028;-83
2022/12/12 02:43:43;;;;;;;67.30;24.73;;;;;;;0.41;100.00;98371.06;5089188;28;20140;-83
2022/12/12 02:46:31;;;;;;;76.78;26.10;;;;;;;0.38;100.00;98367.94;5045009;28;20032;-82
2022/12/12 02:49:05;;;;;;;79.78;29.35;;;;;;;0.60;100.00;98374.47;5063347;28;20115;-81
2022/12/12 02:51:33;;;;;;;95.45;29.17;;;;;;;0.70;100.00;98370.03;5047459;28;20490;-81
2022/12/12 02:53:59;;;;;;;77.57;29.45;;;;;;;0.85;100.00;98375.50;5067476;28;20412;-82
2022/12/12 02:56:58;;;;;;;121.40;32.17;;;;;;;0.90;100.00;98359.53;5060612;28;20135;-82
2022/12/12 02:59:35;;;;;;;80.78;30.65;;;;;;;0.95;100.00;98367.66;5077555;28;20024;-83
2022/12/12 03:02:23;;;;;;;103.60;30.58;;;;;;;0.98;100.00;98372.56;5065734;28;20416;-82
2022/12/12 03:07:47;;;;;;;87.70;31.75;;;;;;;0.91;100.00;98366.34;5065310;28;20426;-82
2022/12/12 03:10:43;;;;;;;84.80;30.60;;;;;;;0.89;100.00;98363.09;5064546;28;20074;-83
2022/12/12 03:13:38;;;;;;;63.47;25.08;;;;;;;0.56;100.00;98363.63;5073786;28;20477;-82
2022/12/12 03:16:22;;;;;;;173.27;30.52;;;;;;;0.56;100.00;98367.97;5074343;28;21517;-83
2022/12/12 03:18:57;;;;;;;265.15;32.47;;;;;;;0.32;100.00;98361.59;5084612;28;20040;-82
2022/12/12 03:21:36;;;;;;;78.25;25.73;;;;;;;0.28;100.00;98370.59;5082442;28;20036;-82
2022/12/12 03:24:11;;;;;;;66.88;25.92;;;;;;;0.30;100.00;98363.50;5081393;28;20031;-83
2022/12/12 03:26:49;;;;;;;92.40;26.50;;;;;;;0.13;100.00;98365.09;5064359;28;20028;-83
2022/12/12 03:29:45;;;;;;;58.90;21.90;;;;;;;0.14;100.00;98364.16;5089796;28;20082;-83
2022/12/12 03:32:16;;;;;;;62.45;23.20;;;;;;;0.06;100.00;98356.28;5077121;28;20024;-83
2022/12/12 03:34:49;;;;;;;88.93;23.67;;;;;;;-0.12;100.00;98369.97;5067810;28;20081;-83
2022/12/12 03:37:21;;;;;;;89.53;25.23;;;;;;;-0.23;100.00;98372.72;5063923;28;20032;-84
2022/12/12 03:39:56;;;;;;;56.60;22.02;;;;;;;-0.13;100.00;98367.53;5084092;28;20039;-82
2022/12/12 03:42:37;;;;;;;56.45;22.73;;;;;;;-0.03;100.00;98374.28;5065663;28;20462;-82
2022/12/12 03:45:17;;;;;;;59.20;23.27;;;;;;;0.18;100.00;98365.47;5090802;28;20077;-81
2022/12/12 03:47:45;;;;;;;63.47;24.70;;;;;;;0.23;100.00;98372.78;5090599;28;20140;-82
2022/12/12 03:50:18;;;;;;;67.43;23.58;;;;;;;0.29;100.00;98372.22;5067883;28;20032;-82
2022/12/12 03:52:56;;;;;;;55.75;24.20;;;;;;;0.43;100.00;98373.47;5058840;28;20032;-82
2022/12/12 03:55:38;;;;;;;124.20;25.58;;;;;;;0.48;100.00;98375.63;5072869;28;20032;-82
2022/12/12 03:58:19;;;;;;;50.25;20.20;;;;;;;0.46;100.00;98382.72;5058207;28;20470;-82
2022/12/12 04:00:48;;;;;;;65.45;24.08;;;;;;;0.51;100.00;98370.16;5058798;28;20416;-82
2022/12/12 04:03:53;;;;;;;90.20;25.77;;;;;;;0.67;100.00;98375.50;5076475;28;20024;-81
2022/12/12 04:06:28;;;;;;;112.90;24.48;;;;;;;0.74;100.00;98380.06;5008536;28;20043;-82
2022/12/12 04:15:25;;;;;;;71.07;23.85;;;;;;;0.96;100.00;98379.63;5088271;28;20397;-82
2022/12/12 04:17:56;;;;;;;;;;;;;;;1.01;100.00;98383.56;5076868;28;20028;-82
2022/12/12 04:23:31;;;;;;;93.65;23.75;;;;;;;0.81;100.00;98384.50;5076213;28;20023;-82
2022/12/12 04:28:49;;;;;;;70.78;27.30;;;;;;;1.03;100.00;98384.22;5089830;28;20032;-82
2022/12/12 04:31:20;;;;;;;54.28;21.00;;;;;;;1.10;100.00;98385.22;5088706;28;20056;-82
2022/12/12 04:33:50;;;;;;;57.83;22.50;;;;;;;1.17;100.00;98380.28;5091797;28;20473;-82
2022/12/12 04:36:20;;;;;;;54.42;21.88;;;;;;;1.16;100.00;98392.38;5077222;28;20502;-83
2022/12/12 04:38:48;;;;;;;63.22;23.23;;;;;;;0.96;100.00;98387.38;5089969;28;20093;-82
2022/12/12 04:41:18;;;;;;;70.80;24.30;;;;;;;1.03;100.00;98385.00;5075637;28;20035;-82
2022/12/12 04:43:47;;;;;;;74.57;23.83;;;;;;;0.98;100.00;98382.88;5075817;28;20056;-82
2022/12/12 04:46:19;;;;;;;61.05;23.83;;;;;;;1.08;100.00;98379.41;5089045;28;20032;-82
2022/12/12 04:48:57;;;;;;;63.50;23.20;;;;;;;1.17;100.00;98385.44;5052532;28;20032;-84
2022/12/12 04:51:41;;;;;;;69.72;21.92;;;;;;;0.80;100.00;98400.16;5086735;28;20050;-81
2022/12/12 04:54:26;;;;;;;165.88;29.95;;;;;;;0.53;100.00;98392.31;5089093;28;20039;-83
2022/12/12 04:56:56;;;;;;;64.15;24.20;;;;;;;0.58;100.00;98394.44;5082474;28;20027;-81
2022/12/12 04:59:23;;;;;;;375.90;35.42;;;;;;;-0.29;100.00;98389.56;5085644;28;20035;-81
2022/12/12 05:02:07;;;;;;;79.05;23.73;;;;;;;0.00;100.00;98401.56;5074667;28;20027;-80
2022/12/12 05:04:41;;;;;;;221.07;27.52;;;;;;;-0.22;100.00;98400.16;5075680;28;20039;-81
2022/12/12 05:07:09;;;;;;;;;;;;;;;0.00;100.00;98399.00;5059024;28;20059;-81
2022/12/12 05:09:36;;;;;;;214.20;29.10;;;;;;;-0.01;100.00;98394.75;5074032;28;19922;-80
2022/12/12 05:12:01;;;;;;;105.18;22.48;;;;;;;-0.23;100.00;98391.59;5084914;28;20111;-80
2022/12/12 05:14:29;;;;;;;119.85;26.48;;;;;;;0.04;100.00;98387.44;5088946;28;20138;-82
2022/12/12 05:17:04;;;;;;;101.95;21.70;;;;;;;0.03;100.00;98372.06;5070172;28;20024;-81
2022/12/12 05:19:29;;;;;;;82.95;22.05;;;;;;;-0.05;100.00;98375.38;5094199;28;20493;-81
2022/12/12 05:21:55;;;;;;;81.38;23.17;;;;;;;-0.03;100.00;98387.19;5094144;28;20032;-80
2022/12/12 05:24:22;;;;;;;244.10;26.33;;;;;;;-0.27;100.00;98371.41;5075291;28;20111;-81
2022/12/12 05:26:53;;;;;;;185.98;25.92;;;;;;;-0.61;100.00;98370.09;5075596;28;20055;-81
2022/12/12 05:29:19;;;;;;;58.33;21.17;;;;;;;-0.16;100.00;98374.59;5073953;28;20032;-81
2022/12/12 05:31:44;;;;;;;131.25;23.05;;;;;;;-0.60;100.00;98372.56;5089158;28;20390;-81
2022/12/12 05:34:10;;;;;;;240.38;25.90;;;;;;;-1.12;100.00;98372.91;5093531;28;20169;-81
2022/12/12 05:36:36;;;;;;;106.82;23.42;;;;;;;-0.92;100.00;98383.19;5095198;28;20026;-81
2022/12/12 05:39:02;;;;;;;57.50;18.95;;;;;;;-0.95;100.00;98378.31;5074511;28;20047;-82
2022/12/12 05:41:27;;;;;;;48.03;17.80;;;;;;;-0.82;100.00;98363.38;5087202;28;20428;-82
2022/12/12 05:43:55;;;;;;;103.97;21.65;;;;;;;-1.25;100.00;98370.59;5092148;28;20048;-82
2022/12/12 05:46:21;;;;;;;82.55;19.30;;;;;;;-1.10;100.00;98375.31;5074446;28;20024;-82
2022/12/12 05:48:49;;;;;;;51.53;18.80;;;;;;;-1.09;100.00;98377.78;5093030;28;20397;-83
2022/12/12 05:51:16;;;;;;;47.15;17.00;;;;;;;-0.99;100.00;98376.94;5085424;28;20482;-82
2022/12/12 05:53:43;;;;;;;81.25;19.35;;;;;;;-0.91;100.00;98374.50;5073474;28;20513;-81
2022/12/12 05:56:10;;;;;;;78.43;19.63;;;;;;;-0.67;100.00;98374.06;5086080;28;20048;-82
2022/12/12 05:58:36;;;;;;;53.05;18.88;;;;;;;-0.51;100.00;98363.19;5073742;28;20119;-82
2022/12/12 06:01:03;;;;;;;53.13;17.80;;;;;;;-0.33;100.00;98378.72;5057803;28;20489;-83
2022/12/12 06:03:36;;;;;;;44.30;18.70;;;;;;;-0.25;100.00;98374.66;5070826;28;20054;-83
2022/12/12 06:06:01;;;;;;;52.65;18.67;;;;;;;-0.10;100.00;98362.09;5092795;28;20077;-82
2022/12/12 06:08:27;;;;;;;62.15;19.83;;;;;;;0.16;100.00;98382.06;5071740;28;20036;-83
2022/12/12 06:10:53;;;;;;;53.35;20.38;;;;;;;0.24;100.00;98377.00;5070399;28;20020;-82
2022/12/12 06:13:19;;;;;;;54.20;17.92;;;;;;;0.24;100.00;98370.06;5092794;28;20024;-82
2022/12/12 06:15:44;;;;;;;53.50;20.15;;;;;;;0.27;100.00;98374.94;5092377;28;20031;-82
2022/12/12 06:18:11;;;;;;;53.17;17.77;;;;;;;0.17;100.00;98383.69;5068655;28;20085;-82
2022/12/12 06:20:37;;;;;;;59.45;17.80;;;;;;;0.21;100.00;98370.34;5067807;28;20029;-83
2022/12/12 06:23:04;;;;;;;59.22;18.15;;;;;;;0.40;100.00;98382.34;5071663;28;20039;-83
2022/12/12 06:25:29;;;;;;;86.65;17.70;;;;;;;0.29;100.00;98372.22;5069107;28;20085;-82
2022/12/12 06:27:55;;;;;;;71.72;19.88;;;;;;;0.16;100.00;98374.31;5091628;28;20483;-83
2022/12/12 06:30:21;;;;;;;53.47;17.60;;;;;;;0.18;100.00;98368.06;5086596;28;20486;-83
2022/12/12 06:32:46;;;;;;;80.90;18.35;;;;;;;0.34;100.00;98375.16;5054930;28;20504;-82
2022/12/12 06:35:12;;;;;;;163.77;22.83;;;;;;;0.37;100.00;98374.88;5088847;28;20024;-82
2022/12/12 06:37:38;;;;;;;109.53;22.15;;;;;;;0.50;100.00;98379.69;5065225;28;20032;-81
2022/12/12 06:40:05;;;;;;;60.53;20.73;;;;;;;0.50;100.00;98368.53;5087278;28;20055;-82
2022/12/12 06:42:31;;;;;;;67.10;21.13;;;;;;;0.50;100.00;98373.72;5090570;28;20125;-83
2022/12/12 06:44:56;;;;;;;54.35;20.73;;;;;;;0.48;100.00;98368.69;5088486;28;20439;-83
2022/12/12 06:47:21;;;;;;;366.67;31.60;;;;;;;-0.21;100.00;98371.63;5071111;28;20028;-81
2022/12/12 06:49:47;;;;;;;223.15;25.48;;;;;;;0.07;100.00;98381.97;5072205;28;20028;-81
2022/12/12 06:52:12;;;;;;;72.47;20.27;;;;;;;0.04;100.00;98382.25;5066818;28;20173;-82
2022/12/12 06:54:39;;;;;;;57.30;19.50;;;;;;;0.18;100.00;98385.31;5072090;28;20028;-81
2022/12/12 06:57:05;;;;;;;103.25;20.77;;;;;;;0.29;100.00;98392.88;5072149;28;20031;-82
2022/12/12 06:59:30;;;;;;;46.00;19.58;;;;;;;0.24;100.00;98395.06;5091161;28;20051;-82
2022/12/12 07:01:56;;;;;;;68.53;23.52;;;;;;;0.31;100.00;98380.63;5091837;28;20073;-82
2022/12/12 07:04:22;;;;;;;137.52;25.73;;;;;;;0.38;100.00;98389.41;5091479;28;20382;-82
2022/12/12 07:06:47;;;;;;;56.95;21.65;;;;;;;0.51;100.00;98386.50;5068796;28;20031;-82
2022/12/12 07:09:13;;;;;;;79.18;23.02;;;;;;;0.71;100.00;98397.50;5063916;28;20031;-81
2022/12/12 07:11:40;;;;;;;69.20;22.98;;;;;;;0.73;100.00;98404.28;5091626;28;20020;-81
2022/12/12 07:14:06;;;;;;;70.70;21.30;;;;;;;0.68;100.00;98392.63;5072986;28;20028;-81
2022/12/12 07:16:33;;;;;;;78.35;25.30;;;;;;;0.74;100.00;98392.97;5070701;28;20493;-81
2022/12/12 07:18:59;;;;;;;53.28;18.70;;;;;;;0.59;100.00;98388.34;5067208;28;20085;-82
2022/12/12 07:21:25;;;;;;;388.52;36.60;;;;;;;0.48;100.00;98391.13;5061590;28;20454;-83
2022/12/12 07:23:50;;;;;;;110.30;23.50;;;;;;;0.57;100.00;98390.25;5087226;28;20038;-82
2022/12/12 07:26:21;;;;;;;66.45;22.98;;;;;;;0.53;100.00;98374.25;5056299;28;20071;-83
2022/12/12 07:28:48;;;;;;;60.78;22.27;;;;;;;0.44;100.00;98380.28;5090300;28;20036;-83
2022/12/12 07:31:17;;;;;;;71.78;23.88;;;;;;;0.52;100.00;98387.28;5090688;28;20035;-81
2022/12/12 07:33:43;;;;;;;65.28;24.58;;;;;;;0.52;100.00;98382.13;5090780;28;20046;-83
2022/12/12 07:36:09;;;;;;;55.85;21.02;;;;;;;0.45;100.00;98391.41;5082667;28;20024;-82
2022/12/12 07:38:35;;;;;;;70.18;22.02;;;;;;;0.33;100.00;98383.88;5073889;28;20032;-83
2022/12/12 07:41:10;;;;;;;64.40;22.33;;;;;;;0.53;100.00;98396.66;5072537;28;20420;-83
2022/12/12 07:43:37;;;;;;;75.65;23.45;;;;;;;0.42;100.00;98388.19;5067506;28;20780;-82
2022/12/12 07:46:07;;;;;;;72.32;24.52;;;;;;;0.58;100.00;98397.03;5090737;28;20470;-84
2022/12/12 07:48:33;;;;;;;61.58;23.55;;;;;;;0.36;100.00;98387.94;5089544;28;20032;-82
2022/12/12 07:51:01;;;;;;;65.35;23.95;;;;;;;0.48;100.00;98398.88;5090846;28;20028;-81
2022/12/12 07:53:28;;;;;;;71.07;23.80;;;;;;;0.51;100.00;98389.06;5090654;28;20422;-82
2022/12/12 07:55:55;;;;;;;81.32;24.02;;;;;;;0.36;100.00;98388.72;5071052;28;20024;-83
2022/12/12 07:58:21;;;;;;;87.80;20.50;;;;;;;-0.68;100.00;98399.97;5106765;28;20482;-82
2022/12/12 08:00:47;;;;;;;111.05;22.05;;;;;;;-0.90;100.00;98392.41;5089842;28;20116;-81
2022/12/12 08:03:12;;;;;;;88.13;22.70;;;;;;;-0.63;100.00;98402.94;5090217;28;20115;-83
2022/12/12 08:05:39;;;;;;;56.25;19.70;;;;;;;-0.55;100.00;98404.84;5089516;28;20024;-84
2022/12/12 08:08:05;;;;;;;154.07;21.88;;;;;;;-0.83;100.00;98395.25;5089628;28;20113;-82
2022/12/12 08:10:31;;;;;;;60.90;19.08;;;;;;;-0.64;100.00;98398.75;5073943;28;20024;-85
2022/12/12 08:12:57;;;;;;;69.10;22.83;;;;;;;-0.27;100.00;98395.41;5091205;28;20119;-84
2022/12/12 08:15:22;;;;;;;252.90;26.40;;;;;;;-0.58;100.00;98403.38;5089211;28;20030;-82
2022/12/12 08:17:48;;;;;;;191.75;27.58;;;;;;;-0.69;100.00;98403.50;5089567;28;20027;-83
2022/12/12 08:20:15;;;;;;;178.10;25.45;;;;;;;-0.59;100.00;98404.28;5091038;28;20103;-84
2022/12/12 08:22:44;;;;;;;66.03;23.15;;;;;;;-0.45;100.00;98400.50;5090108;28;20035;-84
2022/12/12 08:25:10;;;;;;;344.65;33.90;;;;;;;-0.62;100.00;98402.00;5091448;28;20047;-84
2022/12/12 08:27:35;;;;;;;185.20;26.73;;;;;;;-0.48;100.00;98401.56;5072833;28;20145;-86
2022/12/12 08:30:01;;;;;;;114.72;22.75;;;;;;;-0.33;100.00;98403.72;5090821;28;20062;-84
2022/12/12 08:32:27;;;;;;;66.65;22.73;;;;;;;-0.11;100.00;98412.84;5073315;28;20111;-84
2022/12/12 08:34:57;;;;;;;60.90;20.75;;;;;;;0.16;100.00;98413.03;5073676;28;20474;-83
2022/12/12 08:37:23;;;;;;;64.43;21.90;;;;;;;0.14;100.00;98408.81;5090143;28;20024;-82
2022/12/12 08:39:49;;;;;;;76.90;21.17;;;;;;;0.08;100.00;98408.56;5089515;28;20024;-83
2022/12/12 08:42:15;;;;;;;77.00;20.65;;;;;;;0.19;100.00;98399.81;5073976;28;20031;-84
2022/12/12 08:44:40;;;;;;;59.15;21.77;;;;;;;0.20;100.00;98391.97;5038159;28;20040;-85
2022/12/12 08:47:06;;;;;;;95.75;21.33;;;;;;;0.12;100.00;98392.66;5039817;28;20114;-85
2022/12/12 08:49:32;;;;;;;293.08;27.88;;;;;;;-0.75;100.00;98405.69;5071710;28;20076;-84
2022/12/12 08:51:58;;;;;;;118.72;23.63;;;;;;;-0.63;100.00;98396.03;5068733;28;20138;-85
2022/12/12 08:54:24;;;;;;;67.50;20.88;;;;;;;-0.36;100.00;98394.47;5051847;28;20429;-83
2022/12/12 08:56:50;;;;;;;121.28;20.17;;;;;;;-0.34;100.00;98409.81;5071372;28;20493;-81
2022/12/12 08:59:15;;;;;;;56.00;18.75;;;;;;;-0.25;100.00;98401.22;5072701;28;20028;-84
2022/12/12 09:01:41;;;;;;;72.68;20.98;;;;;;;-0.37;100.00;98397.22;5066709;28;20390;-82
2022/12/12 09:04:06;;;;;;;77.15;20.35;;;;;;;-0.64;100.00;98409.06;5074119;28;20021;-82
2022/12/12 09:06:32;;;;;;;73.20;20.73;;;;;;;-0.49;100.00;98405.09;5070841;28;20029;-84
2022/12/12 09:08:58;;;;;;;64.57;19.92;;;;;;;-0.38;100.00;98408.47;5050419;28;20039;-83
2022/12/12 09:11:24;;;;;;;103.72;20.65;;;;;;;-0.88;100.00;98415.47;5055439;28;20675;-82
2022/12/12 09:13:50;;;;;;;54.13;18.95;;;;;;;-0.49;100.00;98420.56;5061167;28;20063;-82
2022/12/12 09:16:18;;;;;;;69.90;21.98;;;;;;;-0.32;100.00;98416.44;5056727;28;20052;-81
2022/12/12 09:18:44;;;;;;;58.15;20.48;;;;;;;-0.09;100.00;98412.72;5073772;28;20526;-82
2022/12/12 09:21:09;;;;;;;52.50;19.38;;;;;;;0.03;100.00;98414.19;5067219;28;20037;-82
2022/12/12 09:23:35;;;;;;;66.45;20.10;;;;;;;0.12;100.00;98410.72;5055237;28;20024;-82
2022/12/12 09:26:06;;;;;;;59.38;22.33;;;;;;;0.35;100.00;98407.75;5054095;28;20052;-82
2022/12/12 09:28:32;;;;;;;70.55;22.40;;;;;;;0.37;100.00;98405.06;5072997;28;20111;-84
2022/12/12 09:30:57;;;;;;;87.90;22.17;;;;;;;0.22;100.00;98409.91;5055166;28;20463;-83
2022/12/12 09:33:23;;;;;;;57.58;21.27;;;;;;;0.42;100.00;98408.84;5035696;28;20440;-83
2022/12/12 09:35:59;;;;;;;63.08;19.92;;;;;;;0.57;100.00;98413.47;5055412;28;20383;-84
2022/12/12 09:38:26;;;;;;;56.80;21.00;;;;;;;0.78;100.00;98423.56;5040872;28;20032;-82
2022/12/12 09:40:54;;;;;;;63.30;22.15;;;;;;;0.87;100.00;98421.88;5038530;28;20029;-82
2022/12/12 09:43:31;;;;;;;59.53;20.95;;;;;;;1.04;100.00;98422.81;5081292;28;20044;-83
2022/12/12 09:45:58;;;;;;;47.83;17.45;;;;;;;0.88;100.00;98413.16;5074073;28;20036;-81
2022/12/12 09:48:38;;;;;;;49.22;19.75;;;;;;;1.04;100.00;98416.84;5091770;28;20028;-84
2022/12/12 09:51:03;;;;;;;50.60;20.10;;;;;;;0.93;100.00;98410.13;5073846;28;20474;-81
2022/12/12 09:53:29;;;;;;;50.95;20.63;;;;;;;0.95;100.00;98414.16;5092692;28;20024;-81
2022/12/12 09:55:58;;;;;;;119.15;22.50;;;;;;;0.58;100.00;98412.53;5092054;28;20034;-81
2022/12/12 09:58:36;;;;;;;77.25;22.10;;;;;;;0.39;100.00;98409.13;5074812;28;20020;-82
2022/12/12 10:01:17;;;;;;;78.10;23.00;;;;;;;-0.22;100.00;98393.22;5091861;28;20028;-81
2022/12/12 10:04:02;;;;;;;61.92;23.02;;;;;;;0.61;100.00;98412.25;5091911;28;20028;-83
2022/12/12 10:06:38;;;;;;;54.08;20.98;;;;;;;1.10;100.00;98421.41;5092728;28;20466;-81
2022/12/12 10:09:48;;;;;;;57.47;22.33;;;;;;;1.19;100.00;98410.19;5092239;28;20032;-81
2022/12/12 10:12:15;;;;;;;57.60;21.92;;;;;;;1.46;100.00;98426.53;5073171;28;20081;-84
2022/12/12 10:14:45;;;;;;;65.32;22.50;;;;;;;1.51;100.00;98421.72;5092576;28;20442;-81
2022/12/12 10:17:19;;;;;;;56.60;20.85;;;;;;;1.49;100.00;98410.72;5092442;28;20480;-82
2022/12/12 10:19:55;;;;;;;63.85;22.90;;;;;;;1.56;100.00;98419.47;5075244;28;20399;-82
2022/12/12 10:22:29;;;;;;;57.80;22.23;;;;;;;1.71;100.00;98413.75;5090693;28;20034;-83
2022/12/12 10:25:02;;;;;;;64.82;22.90;;;;;;;1.76;100.00;98421.88;5091758;28;20111;-83
2022/12/12 10:27:28;;;;;;;57.17;23.45;;;;;;;1.81;100.00;98427.41;5072893;28;20032;-83
2022/12/12 10:29:59;;;;;;;56.03;21.63;;;;;;;1.71;100.00;98424.09;5074269;28;20028;-84
2022/12/12 10:32:38;;;;;;;58.22;22.13;;;;;;;2.00;100.00;98420.41;5073981;28;20389;-84
2022/12/12 10:35:22;;;;;;;66.18;24.63;;;;;;;2.11;100.00;98414.94;5091642;28;20118;-84
2022/12/12 10:37:48;;;;;;;62.53;24.35;;;;;;;2.05;100.00;98425.09;5073196;28;20120;-85
2022/12/12 10:40:22;;;;;;;63.58;25.58;;;;;;;2.15;100.00;98412.84;5090623;28;20116;-82
2022/12/12 10:43:24;;;;;;;82.93;29.95;;;;;;;2.06;100.00;98406.00;5069446;28;20040;-83
2022/12/12 10:45:56;;;;;;;65.20;26.67;;;;;;;2.12;100.00;98406.19;5054874;28;20066;-83
2022/12/12 10:48:21;;;;;;;61.10;25.15;;;;;;;2.19;100.00;98400.41;5071697;28;20411;-84
2022/12/12 10:50:53;;;;;;;62.97;24.88;;;;;;;2.10;100.00;98408.13;5091559;28;20056;-85
2022/12/12 10:53:20;;;;;;;62.65;27.20;;;;;;;2.00;100.00;98397.09;5073346;28;20465;-85
2022/12/12 10:55:52;;;;;;;67.88;27.27;;;;;;;2.16;100.00;98400.69;5090773;28;20036;-85
2022/12/12 10:58:23;;;;;;;67.32;27.08;;;;;;;2.13;100.00;98407.81;5056502;28;20107;-84
2022/12/12 11:00:48;;;;;;;62.75;25.98;;;;;;;2.12;100.00;98393.25;5089634;28;20056;-82
2022/12/12 11:03:28;;;;;;;61.95;26.65;;;;;;;2.30;100.00;98397.53;5055204;28;20108;-82
2022/12/12 11:05:55;;;;;;;65.43;25.15;;;;;;;2.21;100.00;98393.28;5088730;28;20100;-81
2022/12/12 11:08:26;;;;;;;70.53;27.38;;;;;;;1.86;100.00;98390.72;5091628;28;20032;-83
2022/12/12 11:11:04;;;;;;;67.78;27.10;;;;;;;2.24;100.00;98388.59;5091165;28;20032;-82
2022/12/12 11:13:36;;;;;;;72.82;28.27;;;;;;;2.11;100.00;98393.41;5090381;28;20043;-82
2022/12/12 11:16:11;;;;;;;70.85;26.60;;;;;;;2.35;100.00;98382.31;5072110;28;20024;-82
2022/12/12 11:18:37;;;;;;;64.00;24.70;;;;;;;2.26;100.00;98385.88;5091235;28;20580;-82
2022/12/12 11:21:12;;;;;;;58.28;25.02;;;;;;;2.12;100.00;98380.31;5072320;28;20054;-82
2022/12/12 11:23:46;;;;;;;57.42;21.88;;;;;;;1.93;100.00;98383.13;5072930;28;20035;-82
2022/12/12 11:26:16;;;;;;;54.22;21.25;;;;;;;2.23;100.00;98362.88;5072400;28;20172;-82
2022/12/12 11:28:45;;;;;;;53.80;22.25;;;;;;;2.45;100.00;98371.81;5055709;28;20032;-83
2022/12/12 11:31:16;;;;;;;54.13;21.70;;;;;;;2.73;100.00;98366.38;5072635;28;20038;-82
2022/12/12 11:33:49;;;;;;;57.78;23.38;;;;;;;2.61;100.00;98362.47;5055067;28;20034;-83
2022/12/12 11:36:17;;;;;;;55.50;22.35;;;;;;;2.74;100.00;98357.63;5090132;28;20031;-83
2022/12/12 11:38:53;;;;;;;53.38;22.88;;;;;;;2.98;100.00;98356.00;5090634;28;20059;-82
2022/12/12 11:41:19;;;;;;;54.17;21.73;;;;;;;2.99;100.00;98358.47;5071807;28;20035;-84
2022/12/12 11:43:47;;;;;;;56.42;22.15;;;;;;;2.99;100.00;98366.22;5072390;28;20032;-83
2022/12/12 11:46:14;;;;;;;57.38;23.58;;;;;;;3.00;100.00;98365.25;5055885;28;20040;-82
2022/12/12 11:48:55;;;;;;;56.03;23.17;;;;;;;2.99;100.00;98363.63;5089981;28;20031;-83
2022/12/12 11:51:38;;;;;;;56.22;24.38;;;;;;;3.14;100.00;98368.16;5055632;28;20047;-82